Aplicació Alertes

Dades de l'estació automàtica Sant Llorenç Savall

?
?
Resum diari 22:30 TU
Dades diàries de l'estació meteorològica
Temperatura mitjana 4.4 °C
Temperatura màxima 8.4 °C 13:11 TU
Temperatura mínima -1.1 °C 7:24 TU
Humitat relativa mitjana 47%
Precipitació acumulada 0.0 mm
Ratxa màxima del vent (10 m) 27.0 km/h - 89º 9:31 TU

El tram horari està expressat en Temps Universal (TU). Cal sumar una hora en horari d'hivern i dues en horari d'estiu per passar a l'hora oficial.

Sant Llorenç Savall

Metadades estació meteorol´gica
Municipi Sant Llorenç Savall
Comarca Vallès Occidental
Altitud 528 m
Data alta 25.03.1998
Estat actual Operativa
Dades de període
Període
TU
TM
°C
TX
°C
TN
°C
HRM
%
PPT
mm
VVM (10 m)
km/h
DVM (10 m)
graus
VVX (10 m)
km/h
00:00 - 00:30 2.1 3.7 1.1 45 0.0 2.9 161 17.6
00:30 - 01:00 3.8 4.3 2.6 42 0.0 4.3 239 19.8
01:00 - 01:30 4.1 4.4 3.2 42 0.0 6.5 257 18.0
01:30 - 02:00 4.5 4.8 4.3 40 0.0 6.5 251 16.6
02:00 - 02:30 4.4 4.7 3.9 40 0.0 4.0 243 13.0
02:30 - 03:00 3.8 4.2 3.5 42 0.0 2.5 104 9.7
03:00 - 03:30 3.8 4.0 3.5 42 0.0 3.2 145 16.2
03:30 - 04:00 3.9 4.1 3.6 40 0.0 3.2 147 11.2
04:00 - 04:30 3.5 3.7 3.1 41 0.0 3.6 224 11.9
04:30 - 05:00 3.0 3.3 2.4 42 0.0 4.7 85 15.5
05:00 - 05:30 2.6 3.0 2.1 45 0.0 4.3 91 19.4
05:30 - 06:00 2.6 3.0 2.4 46 0.0 5.4 88 15.8
06:00 - 06:30 2.3 2.5 1.9 49 0.0 8.3 94 19.1
06:30 - 07:00 2.0 2.6 0.6 52 0.0 6.5 106 21.6
07:00 - 07:30 0.1 1.0 -1.1 60 0.0 4.0 92 15.1
07:30 - 08:00 1.3 3.2 -0.5 54 0.0 6.1 84 19.8
08:00 - 08:30 2.8 3.2 2.5 49 0.0 6.5 100 21.2
08:30 - 09:00 2.8 3.3 2.5 50 0.0 5.8 101 19.1
09:00 - 09:30 3.8 4.2 3.4 46 0.0 6.5 86 20.2
09:30 - 10:00 4.6 5.1 4.1 44 0.0 7.9 118 27.0
10:00 - 10:30 5.5 5.8 4.9 41 0.0 8.3 265 21.2
10:30 - 11:00 5.6 6.1 5.3 44 0.0 7.9 260 20.9
11:00 - 11:30 6.1 6.6 5.6 45 0.0 7.6 267 21.2
11:30 - 12:00 6.9 7.2 6.6 43 0.0 6.5 284 19.8
12:00 - 12:30 7.2 7.6 7.1 45 0.0 5.0 227 18.4
12:30 - 13:00 7.9 8.2 7.5 43 0.0 4.3 50 14.4
13:00 - 13:30 8.2 8.4 7.9 43 0.0 5.4 220 18.7
13:30 - 14:00 7.9 8.2 7.8 44 0.0 6.1 78 21.2
14:00 - 14:30 8.0 8.2 7.9 41 0.0 6.8 58 20.5
14:30 - 15:00 7.9 8.2 7.5 37 0.0 7.2 51 25.6
15:00 - 15:30 7.1 7.5 6.7 38 0.0 5.0 359 26.3
15:30 - 16:00 6.9 7.1 6.5 38 0.0 5.8 35 17.3
16:00 - 16:30 6.2 6.5 6.0 41 0.0 4.0 300 13.3
16:30 - 17:00 5.8 6.4 5.4 42 0.0 4.7 275 14.4
17:00 - 17:30 5.1 5.6 4.8 45 0.0 2.9 284 11.9
17:30 - 18:00 5.4 5.6 4.9 45 0.0 4.3 259 14.8
18:00 - 18:30 5.1 5.3 4.7 46 0.0 6.8 266 20.5
18:30 - 19:00 5.4 5.5 5.1 47 0.0 8.6 270 23.0
19:00 - 19:30 5.2 5.6 4.7 50 0.0 5.0 255 18.4
19:30 - 20:00 4.7 4.9 4.4 54 0.0 4.7 75 13.3
20:00 - 20:30 4.1 4.6 3.6 55 0.0 3.2 61 10.8
20:30 - 21:00 4.5 4.9 4.1 52 0.0 2.9 95 11.5
21:00 - 21:30 3.2 4.9 1.6 58 0.0 2.2 200 15.1
21:30 - 22:00 0.2 1.5 -0.6 70 0.0 0.7 113 3.6
22:00 - 22:30 -0.5 0.2 -0.8 74 0.0 1.4 29 6.1
22:30 - 23:00 0.5 1.1 0.1 73 0.0 2.2 70 7.2

Les dades en taronja només han passat un control de qualitat automàtic. Resta pendent la seva validació definitiva.